sensor_id;sensor_type;location;lat;lon;timestamp;pressure;altitude;pressure_sealevel;temperature;humidity
46782;BME280;32541;46.298;11.506;2023-03-22T00:01:16;89446.59;;;6.67;74.02
46782;BME280;32541;46.298;11.506;2023-03-22T00:03:44;89443.16;;;6.59;74.38
46782;BME280;32541;46.298;11.506;2023-03-22T00:06:10;89445.56;;;6.55;74.04
46782;BME280;32541;46.298;11.506;2023-03-22T00:08:36;89442.66;;;6.53;74.18
46782;BME280;32541;46.298;11.506;2023-03-22T00:11:03;89445.72;;;6.57;74.31
46782;BME280;32541;46.298;11.506;2023-03-22T00:13:28;89440.34;;;6.50;74.04
46782;BME280;32541;46.298;11.506;2023-03-22T00:15:54;89444.50;;;6.51;74.23
46782;BME280;32541;46.298;11.506;2023-03-22T00:18:22;89443.84;;;6.43;75.37
46782;BME280;32541;46.298;11.506;2023-03-22T00:20:52;89448.25;;;6.38;75.25
46782;BME280;32541;46.298;11.506;2023-03-22T00:23:19;89440.81;;;6.31;75.55
46782;BME280;32541;46.298;11.506;2023-03-22T00:25:45;89443.38;;;6.29;75.15
46782;BME280;32541;46.298;11.506;2023-03-22T00:28:12;89437.00;;;6.27;75.23
46782;BME280;32541;46.298;11.506;2023-03-22T00:30:38;89435.84;;;6.37;75.14
46782;BME280;32541;46.298;11.506;2023-03-22T00:33:04;89434.28;;;6.27;75.11
46782;BME280;32541;46.298;11.506;2023-03-22T00:35:30;89439.03;;;6.26;75.49
46782;BME280;32541;46.298;11.506;2023-03-22T00:37:56;89427.03;;;6.22;76.07
46782;BME280;32541;46.298;11.506;2023-03-22T00:40:22;89435.44;;;6.16;76.22
46782;BME280;32541;46.298;11.506;2023-03-22T00:42:47;89429.22;;;6.23;76.17
46782;BME280;32541;46.298;11.506;2023-03-22T00:45:13;89425.31;;;6.34;76.23
46782;BME280;32541;46.298;11.506;2023-03-22T00:47:38;89428.88;;;6.19;76.58
46782;BME280;32541;46.298;11.506;2023-03-22T00:50:05;89436.16;;;6.17;76.80
46782;BME280;32541;46.298;11.506;2023-03-22T00:52:31;89424.56;;;6.08;77.78
46782;BME280;32541;46.298;11.506;2023-03-22T00:54:56;89431.22;;;6.23;76.97
46782;BME280;32541;46.298;11.506;2023-03-22T00:57:22;89430.72;;;6.17;76.77
46782;BME280;32541;46.298;11.506;2023-03-22T00:59:48;89428.00;;;6.09;77.35
46782;BME280;32541;46.298;11.506;2023-03-22T01:02:13;89421.50;;;6.04;77.89
46782;BME280;32541;46.298;11.506;2023-03-22T01:04:40;89417.88;;;6.02;77.53
46782;BME280;32541;46.298;11.506;2023-03-22T01:07:11;89416.94;;;6.07;77.54
46782;BME280;32541;46.298;11.506;2023-03-22T01:09:48;89403.06;;;6.12;77.37
46782;BME280;32541;46.298;11.506;2023-03-22T01:12:14;89412.56;;;6.04;77.29
46782;BME280;32541;46.298;11.506;2023-03-22T01:14:39;89408.06;;;5.99;77.54
46782;BME280;32541;46.298;11.506;2023-03-22T01:17:05;89396.97;;;5.97;77.42
46782;BME280;32541;46.298;11.506;2023-03-22T01:19:32;89402.59;;;5.99;77.80
46782;BME280;32541;46.298;11.506;2023-03-22T01:21:58;89398.25;;;5.96;78.15
46782;BME280;32541;46.298;11.506;2023-03-22T01:24:23;89396.06;;;5.94;77.92
46782;BME280;32541;46.298;11.506;2023-03-22T01:26:49;89394.06;;;5.95;77.64
46782;BME280;32541;46.298;11.506;2023-03-22T01:29:14;89385.13;;;6.02;77.74
46782;BME280;32541;46.298;11.506;2023-03-22T01:31:40;89376.03;;;5.99;77.72
46782;BME280;32541;46.298;11.506;2023-03-22T01:34:05;89377.84;;;5.97;78.18
46782;BME280;32541;46.298;11.506;2023-03-22T01:36:31;89378.38;;;6.03;77.77
46782;BME280;32541;46.298;11.506;2023-03-22T01:38:57;89385.63;;;6.08;77.26
46782;BME280;32541;46.298;11.506;2023-03-22T01:41:23;89382.22;;;6.00;78.22
46782;BME280;32541;46.298;11.506;2023-03-22T01:44:18;89382.03;;;5.98;78.26
46782;BME280;32541;46.298;11.506;2023-03-22T01:46:46;89371.03;;;6.13;78.18
46782;BME280;32541;46.298;11.506;2023-03-22T01:49:17;89374.84;;;6.18;77.86
46782;BME280;32541;46.298;11.506;2023-03-22T01:51:45;89367.13;;;5.99;78.26
46782;BME280;32541;46.298;11.506;2023-03-22T01:54:17;89366.28;;;5.89;78.97
46782;BME280;32541;46.298;11.506;2023-03-22T01:56:47;89364.47;;;5.84;79.45
46782;BME280;32541;46.298;11.506;2023-03-22T01:59:13;89358.13;;;5.74;80.13
46782;BME280;32541;46.298;11.506;2023-03-22T02:01:39;89372.28;;;5.80;79.73
46782;BME280;32541;46.298;11.506;2023-03-22T02:04:14;89358.13;;;5.81;79.63
46782;BME280;32541;46.298;11.506;2023-03-22T02:06:42;89363.19;;;5.85;79.46
46782;BME280;32541;46.298;11.506;2023-03-22T02:09:10;89352.47;;;5.87;79.56
46782;BME280;32541;46.298;11.506;2023-03-22T02:11:39;89361.53;;;5.89;79.54
46782;BME280;32541;46.298;11.506;2023-03-22T02:17:20;89351.59;;;6.09;78.50
46782;BME280;32541;46.298;11.506;2023-03-22T02:33:40;89380.66;;;5.82;81.45
46782;BME280;32541;46.298;11.506;2023-03-22T02:39:16;89399.66;;;5.65;81.85
46782;BME280;32541;46.298;11.506;2023-03-22T02:45:02;89398.06;;;5.54;80.43
46782;BME280;32541;46.298;11.506;2023-03-22T02:50:10;89395.69;;;5.58;79.51
46782;BME280;32541;46.298;11.506;2023-03-22T02:52:52;89408.41;;;5.63;79.13
46782;BME280;32541;46.298;11.506;2023-03-22T02:58:15;89408.03;;;5.67;80.74
46782;BME280;32541;46.298;11.506;2023-03-22T03:00:43;89406.94;;;5.62;80.90
46782;BME280;32541;46.298;11.506;2023-03-22T03:03:11;89415.63;;;5.68;80.54
46782;BME280;32541;46.298;11.506;2023-03-22T03:05:42;89415.25;;;5.72;80.08
46782;BME280;32541;46.298;11.506;2023-03-22T03:08:09;89417.47;;;5.66;80.33
46782;BME280;32541;46.298;11.506;2023-03-22T03:10:39;89425.22;;;5.84;79.73
46782;BME280;32541;46.298;11.506;2023-03-22T03:13:07;89417.25;;;5.79;80.09
46782;BME280;32541;46.298;11.506;2023-03-22T03:15:34;89416.69;;;5.80;79.92
46782;BME280;32541;46.298;11.506;2023-03-22T03:21:30;89422.13;;;5.80;79.78
46782;BME280;32541;46.298;11.506;2023-03-22T03:26:45;89411.28;;;5.73;80.43
46782;BME280;32541;46.298;11.506;2023-03-22T03:29:19;89410.56;;;5.65;81.02
46782;BME280;32541;46.298;11.506;2023-03-22T03:32:05;89408.94;;;5.61;80.82
46782;BME280;32541;46.298;11.506;2023-03-22T03:34:56;89409.34;;;5.58;80.73
46782;BME280;32541;46.298;11.506;2023-03-22T03:37:27;89415.25;;;5.72;79.95
46782;BME280;32541;46.298;11.506;2023-03-22T03:40:01;89418.94;;;5.67;80.28
46782;BME280;32541;46.298;11.506;2023-03-22T03:42:29;89413.47;;;5.67;80.02
46782;BME280;32541;46.298;11.506;2023-03-22T03:44:56;89415.31;;;5.64;80.65
46782;BME280;32541;46.298;11.506;2023-03-22T03:47:21;89418.19;;;5.66;80.39
46782;BME280;32541;46.298;11.506;2023-03-22T03:49:47;89415.75;;;5.45;81.37
46782;BME280;32541;46.298;11.506;2023-03-22T03:52:12;89413.03;;;5.38;81.88
46782;BME280;32541;46.298;11.506;2023-03-22T03:54:38;89407.44;;;5.21;83.10
46782;BME280;32541;46.298;11.506;2023-03-22T03:57:03;89413.47;;;5.19;82.76
46782;BME280;32541;46.298;11.506;2023-03-22T03:59:29;89419.06;;;5.29;82.52
46782;BME280;32541;46.298;11.506;2023-03-22T04:01:54;89418.88;;;5.27;82.60
46782;BME280;32541;46.298;11.506;2023-03-22T04:04:26;89415.78;;;5.23;82.08
46782;BME280;32541;46.298;11.506;2023-03-22T04:06:56;89421.44;;;5.17;82.24
46782;BME280;32541;46.298;11.506;2023-03-22T04:09:24;89404.00;;;5.20;81.95
46782;BME280;32541;46.298;11.506;2023-03-22T04:11:51;89402.38;;;5.17;82.33
46782;BME280;32541;46.298;11.506;2023-03-22T04:14:16;89401.47;;;5.22;82.41
46782;BME280;32541;46.298;11.506;2023-03-22T04:16:41;89400.38;;;5.25;81.93
46782;BME280;32541;46.298;11.506;2023-03-22T04:19:07;89401.25;;;5.28;81.76
46782;BME280;32541;46.298;11.506;2023-03-22T04:21:32;89406.34;;;5.31;81.59
46782;BME280;32541;46.298;11.506;2023-03-22T04:23:57;89397.97;;;5.37;81.17
46782;BME280;32541;46.298;11.506;2023-03-22T04:26:23;89400.16;;;5.23;81.25
46782;BME280;32541;46.298;11.506;2023-03-22T04:28:48;89396.22;;;5.09;82.14
46782;BME280;32541;46.298;11.506;2023-03-22T04:31:13;89397.16;;;5.04;81.67
46782;BME280;32541;46.298;11.506;2023-03-22T04:33:39;89397.31;;;5.06;81.87
46782;BME280;32541;46.298;11.506;2023-03-22T04:36:07;89397.47;;;5.08;81.87
46782;BME280;32541;46.298;11.506;2023-03-22T04:38:35;89399.31;;;5.13;82.06
46782;BME280;32541;46.298;11.506;2023-03-22T04:41:04;89402.22;;;5.00;82.48
46782;BME280;32541;46.298;11.506;2023-03-22T04:43:29;89404.25;;;4.92;82.68
46782;BME280;32541;46.298;11.506;2023-03-22T04:45:59;89397.72;;;4.87;82.36
46782;BME280;32541;46.298;11.506;2023-03-22T04:48:26;89395.19;;;4.82;82.33
46782;BME280;32541;46.298;11.506;2023-03-22T04:50:52;89397.75;;;4.80;82.43
46782;BME280;32541;46.298;11.506;2023-03-22T04:53:18;89394.09;;;4.85;82.18
46782;BME280;32541;46.298;11.506;2023-03-22T04:55:43;89396.47;;;4.81;82.53
46782;BME280;32541;46.298;11.506;2023-03-22T04:58:09;89389.41;;;4.78;82.56
46782;BME280;32541;46.298;11.506;2023-03-22T05:00:35;89397.19;;;4.74;82.46
46782;BME280;32541;46.298;11.506;2023-03-22T05:03:02;89393.91;;;4.83;82.15
46782;BME280;32541;46.298;11.506;2023-03-22T05:05:28;89392.81;;;4.78;82.11
46782;BME280;32541;46.298;11.506;2023-03-22T05:07:54;89395.94;;;4.67;83.01
46782;BME280;32541;46.298;11.506;2023-03-22T05:10:20;89392.50;;;4.59;82.85
46782;BME280;32541;46.298;11.506;2023-03-22T05:12:46;89391.22;;;4.60;82.62
46782;BME280;32541;46.298;11.506;2023-03-22T05:15:12;89383.78;;;4.61;82.89
46782;BME280;32541;46.298;11.506;2023-03-22T05:17:38;89385.41;;;4.64;82.49
46782;BME280;32541;46.298;11.506;2023-03-22T05:20:04;89384.69;;;4.56;82.95
46782;BME280;32541;46.298;11.506;2023-03-22T05:22:35;89388.13;;;4.64;83.62
46782;BME280;32541;46.298;11.506;2023-03-22T05:25:03;89388.66;;;4.70;83.15
46782;BME280;32541;46.298;11.506;2023-03-22T05:27:29;89383.06;;;4.60;83.91
46782;BME280;32541;46.298;11.506;2023-03-22T05:29:59;89387.25;;;4.54;84.05
46782;BME280;32541;46.298;11.506;2023-03-22T05:32:24;89393.41;;;4.54;83.74
46782;BME280;32541;46.298;11.506;2023-03-22T05:34:49;89398.13;;;4.54;83.72
46782;BME280;32541;46.298;11.506;2023-03-22T05:37:15;89399.22;;;4.58;83.96
46782;BME280;32541;46.298;11.506;2023-03-22T05:39:41;89395.59;;;4.63;83.73
46782;BME280;32541;46.298;11.506;2023-03-22T05:42:06;89389.44;;;4.47;83.77
46782;BME280;32541;46.298;11.506;2023-03-22T05:44:31;89396.31;;;4.48;83.67
46782;BME280;32541;46.298;11.506;2023-03-22T05:46:57;89394.88;;;4.47;83.16
46782;BME280;32541;46.298;11.506;2023-03-22T05:49:22;89388.53;;;4.45;83.85
46782;BME280;32541;46.298;11.506;2023-03-22T05:51:48;89391.78;;;4.51;83.96
46782;BME280;32541;46.298;11.506;2023-03-22T05:54:14;89390.50;;;4.44;83.90
46782;BME280;32541;46.298;11.506;2023-03-22T05:56:40;89396.13;;;4.46;84.67
46782;BME280;32541;46.298;11.506;2023-03-22T05:59:05;89399.94;;;4.43;84.77
46782;BME280;32541;46.298;11.506;2023-03-22T06:01:31;89403.41;;;4.44;84.41
46782;BME280;32541;46.298;11.506;2023-03-22T06:03:57;89407.03;;;4.46;84.80
46782;BME280;32541;46.298;11.506;2023-03-22T06:06:23;89405.94;;;4.49;84.74
46782;BME280;32541;46.298;11.506;2023-03-22T06:08:48;89411.00;;;4.61;84.25
46782;BME280;32541;46.298;11.506;2023-03-22T06:11:13;89415.91;;;4.47;84.54
46782;BME280;32541;46.298;11.506;2023-03-22T06:13:39;89415.75;;;4.45;84.67
46782;BME280;32541;46.298;11.506;2023-03-22T06:16:05;89422.97;;;4.42;84.55
46782;BME280;32541;46.298;11.506;2023-03-22T06:18:31;89423.91;;;4.37;85.23
46782;BME280;32541;46.298;11.506;2023-03-22T06:20:58;89426.44;;;4.35;85.35
46782;BME280;32541;46.298;11.506;2023-03-22T06:23:23;89429.50;;;4.39;84.67
46782;BME280;32541;46.298;11.506;2023-03-22T06:25:49;89432.25;;;4.47;84.63
46782;BME280;32541;46.298;11.506;2023-03-22T06:28:14;89432.97;;;4.55;84.29
46782;BME280;32541;46.298;11.506;2023-03-22T06:30:39;89422.28;;;4.57;84.67
46782;BME280;32541;46.298;11.506;2023-03-22T06:33:05;89426.63;;;4.68;83.67
46782;BME280;32541;46.298;11.506;2023-03-22T06:35:31;89428.25;;;4.71;86.15
46782;BME280;32541;46.298;11.506;2023-03-22T06:37:57;89436.03;;;4.82;85.60
46782;BME280;32541;46.298;11.506;2023-03-22T06:40:23;89430.41;;;4.87;84.80
46782;BME280;32541;46.298;11.506;2023-03-22T06:42:48;89434.78;;;4.83;84.54
46782;BME280;32541;46.298;11.506;2023-03-22T06:45:14;89432.97;;;4.85;84.41
46782;BME280;32541;46.298;11.506;2023-03-22T06:47:41;89435.66;;;4.93;84.51
46782;BME280;32541;46.298;11.506;2023-03-22T06:50:07;89443.13;;;4.92;84.87
46782;BME280;32541;46.298;11.506;2023-03-22T06:52:34;89440.22;;;4.83;84.86
46782;BME280;32541;46.298;11.506;2023-03-22T06:55:00;89438.38;;;4.93;85.05
46782;BME280;32541;46.298;11.506;2023-03-22T06:57:25;89440.22;;;4.98;84.29
46782;BME280;32541;46.298;11.506;2023-03-22T06:59:50;89437.47;;;5.13;84.47
46782;BME280;32541;46.298;11.506;2023-03-22T07:02:16;89441.91;;;5.48;84.24
46782;BME280;32541;46.298;11.506;2023-03-22T07:04:41;89438.38;;;6.10;82.94
46782;BME280;32541;46.298;11.506;2023-03-22T07:07:07;89434.13;;;6.49;81.13
46782;BME280;32541;46.298;11.506;2023-03-22T07:09:32;89433.72;;;6.78;80.21
46782;BME280;32541;46.298;11.506;2023-03-22T07:11:58;89430.59;;;7.23;76.92
46782;BME280;32541;46.298;11.506;2023-03-22T07:14:23;89435.44;;;7.32;75.96
46782;BME280;32541;46.298;11.506;2023-03-22T07:16:48;89428.53;;;7.48;76.11
46782;BME280;32541;46.298;11.506;2023-03-22T07:19:14;89429.72;;;7.89;75.77
46782;BME280;32541;46.298;11.506;2023-03-22T07:21:41;89428.91;;;8.40;73.33
46782;BME280;32541;46.298;11.506;2023-03-22T07:24:06;89429.41;;;8.92;71.28
46782;BME280;32541;46.298;11.506;2023-03-22T07:26:33;89421.38;;;9.13;70.61
46782;BME280;32541;46.298;11.506;2023-03-22T07:28:58;89426.97;;;9.61;69.07
46782;BME280;32541;46.298;11.506;2023-03-22T07:31:24;89430.41;;;9.71;67.20
46782;BME280;32541;46.298;11.506;2023-03-22T07:33:49;89427.25;;;10.23;66.28
46782;BME280;32541;46.298;11.506;2023-03-22T07:36:16;89428.63;;;10.62;63.66
46782;BME280;32541;46.298;11.506;2023-03-22T07:38:41;89430.56;;;10.90;61.39
46782;BME280;32541;46.298;11.506;2023-03-22T07:41:07;89419.59;;;11.11;61.29
46782;BME280;32541;46.298;11.506;2023-03-22T07:43:32;89420.34;;;11.43;59.89
46782;BME280;32541;46.298;11.506;2023-03-22T07:45:58;89420.75;;;11.70;56.88
46782;BME280;32541;46.298;11.506;2023-03-22T07:48:23;89423.16;;;11.97;56.79
46782;BME280;32541;46.298;11.506;2023-03-22T07:50:52;89418.28;;;11.74;55.98
46782;BME280;32541;46.298;11.506;2023-03-22T07:53:18;89425.22;;;11.75;56.06
46782;BME280;32541;46.298;11.506;2023-03-22T07:55:43;89425.75;;;11.83;56.00
46782;BME280;32541;46.298;11.506;2023-03-22T07:58:09;89419.16;;;12.09;55.67
46782;BME280;32541;46.298;11.506;2023-03-22T08:00:34;89424.25;;;12.24;55.60
46782;BME280;32541;46.298;11.506;2023-03-22T08:03:00;89419.06;;;12.52;54.33
46782;BME280;32541;46.298;11.506;2023-03-22T08:05:26;89421.72;;;12.50;56.21
46782;BME280;32541;46.298;11.506;2023-03-22T08:07:51;89418.44;;;12.98;54.86
46782;BME280;32541;46.298;11.506;2023-03-22T08:10:19;89420.19;;;13.26;54.00
46782;BME280;32541;46.298;11.506;2023-03-22T08:12:44;89413.91;;;13.49;52.28
46782;BME280;32541;46.298;11.506;2023-03-22T08:15:10;89408.88;;;13.45;53.25
46782;BME280;32541;46.298;11.506;2023-03-22T08:17:36;89408.66;;;13.53;53.17
46782;BME280;32541;46.298;11.506;2023-03-22T08:20:02;89414.53;;;13.35;53.47
46782;BME280;32541;46.298;11.506;2023-03-22T08:22:37;89405.06;;;13.39;53.57
46782;BME280;32541;46.298;11.506;2023-03-22T08:25:03;89410.66;;;13.64;52.40
46782;BME280;32541;46.298;11.506;2023-03-22T08:27:28;89416.22;;;13.52;53.27
46782;BME280;32541;46.298;11.506;2023-03-22T08:29:54;89410.81;;;12.52;53.71
46782;BME280;32541;46.298;11.506;2023-03-22T08:32:20;89408.25;;;11.79;55.76
46782;BME280;32541;46.298;11.506;2023-03-22T08:34:46;89403.06;;;11.21;57.68
46782;BME280;32541;46.298;11.506;2023-03-22T08:37:11;89412.44;;;11.28;57.37
46782;BME280;32541;46.298;11.506;2023-03-22T08:39:37;89400.66;;;11.37;56.60
46782;BME280;32541;46.298;11.506;2023-03-22T08:42:02;89406.25;;;11.91;57.25
46782;BME280;32541;46.298;11.506;2023-03-22T08:44:28;89395.81;;;12.10;54.63
46782;BME280;32541;46.298;11.506;2023-03-22T08:46:54;89395.94;;;11.91;55.65
46782;BME280;32541;46.298;11.506;2023-03-22T08:49:19;89401.38;;;12.01;55.07
46782;BME280;32541;46.298;11.506;2023-03-22T08:51:45;89396.72;;;12.03;55.55
46782;BME280;32541;46.298;11.506;2023-03-22T08:54:11;89398.50;;;11.99;55.73
46782;BME280;32541;46.298;11.506;2023-03-22T08:56:36;89398.34;;;12.18;56.08
46782;BME280;32541;46.298;11.506;2023-03-22T08:59:06;89395.66;;;12.97;54.94
46782;BME280;32541;46.298;11.506;2023-03-22T09:01:33;89396.53;;;12.44;54.61
46782;BME280;32541;46.298;11.506;2023-03-22T09:03:58;89396.34;;;12.86;55.60
46782;BME280;32541;46.298;11.506;2023-03-22T09:06:24;89395.88;;;12.78;54.06
46782;BME280;32541;46.298;11.506;2023-03-22T09:08:51;89385.84;;;12.38;54.07
46782;BME280;32541;46.298;11.506;2023-03-22T09:11:18;89396.38;;;12.09;54.24
46782;BME280;32541;46.298;11.506;2023-03-22T09:13:44;89393.06;;;12.10;55.35
46782;BME280;32541;46.298;11.506;2023-03-22T09:16:09;89399.03;;;12.40;55.76
46782;BME280;32541;46.298;11.506;2023-03-22T09:18:36;89395.25;;;12.68;54.85
46782;BME280;32541;46.298;11.506;2023-03-22T09:21:02;89386.78;;;13.57;52.60
46782;BME280;32541;46.298;11.506;2023-03-22T09:23:28;89387.84;;;13.63;51.35
46782;BME280;32541;46.298;11.506;2023-03-22T09:25:58;89381.84;;;13.67;51.95
46782;BME280;32541;46.298;11.506;2023-03-22T09:28:24;89388.22;;;13.00;54.28
46782;BME280;32541;46.298;11.506;2023-03-22T09:30:50;89394.09;;;12.94;55.45
46782;BME280;32541;46.298;11.506;2023-03-22T09:33:15;89381.44;;;13.84;52.69
46782;BME280;32541;46.298;11.506;2023-03-22T09:35:41;89390.75;;;13.30;53.78
46782;BME280;32541;46.298;11.506;2023-03-22T09:38:07;89391.38;;;13.17;54.43
46782;BME280;32541;46.298;11.506;2023-03-22T09:40:34;89375.94;;;13.61;52.54
46782;BME280;32541;46.298;11.506;2023-03-22T09:43:01;89379.97;;;13.95;50.95
46782;BME280;32541;46.298;11.506;2023-03-22T09:45:35;89382.19;;;13.61;51.99
46782;BME280;32541;46.298;11.506;2023-03-22T09:48:13;89378.53;;;13.93;52.90
46782;BME280;32541;46.298;11.506;2023-03-22T09:50:51;89379.25;;;13.94;52.75
46782;BME280;32541;46.298;11.506;2023-03-22T09:53:17;89368.69;;;14.53;51.51
46782;BME280;32541;46.298;11.506;2023-03-22T09:58:23;89365.19;;;14.77;49.95
46782;BME280;32541;46.298;11.506;2023-03-22T10:06:18;89354.66;;;14.87;51.29
46782;BME280;32541;46.298;11.506;2023-03-22T10:14:10;89343.84;;;15.32;49.72
46782;BME280;32541;46.298;11.506;2023-03-22T10:16:41;89346.56;;;14.91;50.32
46782;BME280;32541;46.298;11.506;2023-03-22T10:19:34;89353.81;;;14.85;50.84
46782;BME280;32541;46.298;11.506;2023-03-22T10:22:02;89341.31;;;14.84;50.07
46782;BME280;32541;46.298;11.506;2023-03-22T10:24:35;89352.44;;;14.33;51.34
46782;BME280;32541;46.298;11.506;2023-03-22T10:27:02;89343.88;;;14.80;51.29
46782;BME280;32541;46.298;11.506;2023-03-22T10:29:37;89329.06;;;15.69;51.00
46782;BME280;32541;46.298;11.506;2023-03-22T10:34:35;89336.84;;;15.99;48.19
46782;BME280;32541;46.298;11.506;2023-03-22T10:37:02;89338.19;;;15.85;49.68
46782;BME280;32541;46.298;11.506;2023-03-22T10:39:33;89333.56;;;16.61;48.34
46782;BME280;32541;46.298;11.506;2023-03-22T10:42:02;89339.69;;;16.74;45.78
46782;BME280;32541;46.298;11.506;2023-03-22T10:44:30;89337.38;;;15.82;48.85
46782;BME280;32541;46.298;11.506;2023-03-22T10:47:00;89331.41;;;15.74;48.63
46782;BME280;32541;46.298;11.506;2023-03-22T10:49:35;89341.88;;;15.89;49.30
46782;BME280;32541;46.298;11.506;2023-03-22T10:52:21;89338.00;;;15.53;49.14
46782;BME280;32541;46.298;11.506;2023-03-22T10:54:50;89338.66;;;14.86;50.37
46782;BME280;32541;46.298;11.506;2023-03-22T10:57:16;89336.13;;;15.44;51.14
46782;BME280;32541;46.298;11.506;2023-03-22T11:02:30;89328.47;;;15.56;48.74
46782;BME280;32541;46.298;11.506;2023-03-22T11:05:05;89312.66;;;16.45;49.09
46782;BME280;32541;46.298;11.506;2023-03-22T11:12:24;89308.91;;;16.25;47.64
46782;BME280;32541;46.298;11.506;2023-03-22T11:14:50;89303.41;;;16.70;47.04
46782;BME280;32541;46.298;11.506;2023-03-22T11:17:22;89316.56;;;16.40;46.67
46782;BME280;32541;46.298;11.506;2023-03-22T11:19:56;89316.47;;;16.38;47.08
46782;BME280;32541;46.298;11.506;2023-03-22T11:25:06;89304.78;;;17.00;46.74
46782;BME280;32541;46.298;11.506;2023-03-22T11:30:26;89303.34;;;17.14;46.70
46782;BME280;32541;46.298;11.506;2023-03-22T11:33:20;89299.19;;;17.62;45.60
46782;BME280;32541;46.298;11.506;2023-03-22T11:35:52;89302.44;;;17.41;45.16
46782;BME280;32541;46.298;11.506;2023-03-22T11:38:39;89285.72;;;16.18;47.06
46782;BME280;32541;46.298;11.506;2023-03-22T11:41:25;89298.53;;;16.25;47.74
46782;BME280;32541;46.298;11.506;2023-03-22T11:43:53;89286.13;;;16.71;47.77
46782;BME280;32541;46.298;11.506;2023-03-22T11:46:20;89294.19;;;16.81;46.95
46782;BME280;32541;46.298;11.506;2023-03-22T11:48:48;89286.41;;;17.08;46.02
46782;BME280;32541;46.298;11.506;2023-03-22T11:51:16;89287.00;;;17.38;46.32
46782;BME280;32541;46.298;11.506;2023-03-22T11:53:44;89286.69;;;16.38;47.58
46782;BME280;32541;46.298;11.506;2023-03-22T11:56:15;89282.41;;;15.49;49.39
46782;BME280;32541;46.298;11.506;2023-03-22T11:59:22;89287.16;;;16.19;48.44
46782;BME280;32541;46.298;11.506;2023-03-22T12:01:56;89288.72;;;16.38;47.89
46782;BME280;32541;46.298;11.506;2023-03-22T12:04:27;89282.16;;;16.60;47.20
46782;BME280;32541;46.298;11.506;2023-03-22T12:06:58;89283.50;;;16.30;47.35
46782;BME280;32541;46.298;11.506;2023-03-22T12:09:40;89276.28;;;16.09;48.75
46782;BME280;32541;46.298;11.506;2023-03-22T12:12:16;89273.50;;;16.68;48.63
46782;BME280;32541;46.298;11.506;2023-03-22T12:20:18;89265.03;;;17.44;46.43
46782;BME280;32541;46.298;11.506;2023-03-22T12:22:52;89261.75;;;17.16;46.42
46782;BME280;32541;46.298;11.506;2023-03-22T12:25:21;89269.81;;;17.26;47.24
46782;BME280;32541;46.298;11.506;2023-03-22T12:27:52;89261.06;;;17.16;45.69
46782;BME280;32541;46.298;11.506;2023-03-22T12:30:22;89265.88;;;17.15;47.42
46782;BME280;32541;46.298;11.506;2023-03-22T12:33:01;89255.13;;;17.72;46.31
46782;BME280;32541;46.298;11.506;2023-03-22T12:35:32;89261.63;;;18.12;44.62
46782;BME280;32541;46.298;11.506;2023-03-22T12:38:06;89262.09;;;18.42;45.41
46782;BME280;32541;46.298;11.506;2023-03-22T12:40:39;89254.47;;;18.60;43.90
46782;BME280;32541;46.298;11.506;2023-03-22T12:43:15;89267.44;;;18.54;42.85
46782;BME280;32541;46.298;11.506;2023-03-22T12:45:49;89241.63;;;18.71;42.77
46782;BME280;32541;46.298;11.506;2023-03-22T12:48:35;89246.84;;;18.98;43.46
46782;BME280;32541;46.298;11.506;2023-03-22T12:51:08;89233.84;;;19.05;43.07
46782;BME280;32541;46.298;11.506;2023-03-22T12:53:44;89245.81;;;19.27;43.16
46782;BME280;32541;46.298;11.506;2023-03-22T12:56:13;89231.72;;;19.03;42.00
46782;BME280;32541;46.298;11.506;2023-03-22T12:58:42;89243.41;;;17.58;43.84
46782;BME280;32541;46.298;11.506;2023-03-22T13:03:45;89238.84;;;16.85;44.92
46782;BME280;32541;46.298;11.506;2023-03-22T13:06:33;89227.25;;;17.06;45.00
46782;BME280;32541;46.298;11.506;2023-03-22T13:17:20;89220.34;;;17.89;43.93
46782;BME280;32541;46.298;11.506;2023-03-22T13:27:34;89206.97;;;17.68;42.70
46782;BME280;32541;46.298;11.506;2023-03-22T13:30:03;89212.03;;;17.07;43.17
46782;BME280;32541;46.298;11.506;2023-03-22T13:32:34;89210.72;;;16.77;44.32
46782;BME280;32541;46.298;11.506;2023-03-22T13:35:01;89199.94;;;16.85;44.39
46782;BME280;32541;46.298;11.506;2023-03-22T13:37:30;89203.41;;;17.50;42.31
46782;BME280;32541;46.298;11.506;2023-03-22T13:39:59;89192.28;;;17.83;41.72
46782;BME280;32541;46.298;11.506;2023-03-22T13:42:33;89193.06;;;18.21;41.80
46782;BME280;32541;46.298;11.506;2023-03-22T13:45:00;89197.09;;;18.53;40.60
46782;BME280;32541;46.298;11.506;2023-03-22T13:49:59;89192.25;;;18.36;40.35
46782;BME280;32541;46.298;11.506;2023-03-22T13:52:40;89191.22;;;18.63;41.13
46782;BME280;32541;46.298;11.506;2023-03-22T13:55:34;89188.53;;;17.94;40.11
46782;BME280;32541;46.298;11.506;2023-03-22T13:58:00;89181.09;;;17.81;40.64
46782;BME280;32541;46.298;11.506;2023-03-22T14:03:06;89167.31;;;18.03;40.37
46782;BME280;32541;46.298;11.506;2023-03-22T14:05:36;89173.00;;;18.42;40.90
46782;BME280;32541;46.298;11.506;2023-03-22T14:08:03;89163.53;;;18.67;40.51
46782;BME280;32541;46.298;11.506;2023-03-22T14:10:44;89168.25;;;19.02;40.65
46782;BME280;32541;46.298;11.506;2023-03-22T14:13:16;89166.38;;;19.28;38.68
46782;BME280;32541;46.298;11.506;2023-03-22T14:16:05;89177.59;;;18.16;39.40
46782;BME280;32541;46.298;11.506;2023-03-22T14:18:34;89164.63;;;17.69;40.61
46782;BME280;32541;46.298;11.506;2023-03-22T14:21:06;89165.94;;;17.17;42.69
46782;BME280;32541;46.298;11.506;2023-03-22T14:23:35;89167.25;;;17.32;41.69
46782;BME280;32541;46.298;11.506;2023-03-22T14:26:15;89163.38;;;17.72;43.24
46782;BME280;32541;46.298;11.506;2023-03-22T14:28:42;89156.66;;;18.15;41.38
46782;BME280;32541;46.298;11.506;2023-03-22T14:31:34;89151.84;;;18.35;39.85
46782;BME280;32541;46.298;11.506;2023-03-22T14:34:03;89160.66;;;18.10;41.08
46782;BME280;32541;46.298;11.506;2023-03-22T14:36:35;89157.53;;;18.19;39.99